sensor_id;sensor_type;location;lat;lon;timestamp;P1;durP1;ratioP1;P2;durP2;ratioP2
966;SDS011;56108;48.730;9.304;2022-09-12T00:00:10;17.48;;;15.35;;
966;SDS011;56108;48.730;9.304;2022-09-12T00:02:19;15.98;;;14.32;;
966;SDS011;56108;48.730;9.304;2022-09-12T00:04:27;17.15;;;14.68;;
966;SDS011;56108;48.730;9.304;2022-09-12T00:06:35;15.23;;;13.77;;
966;SDS011;56108;48.730;9.304;2022-09-12T00:08:46;16.90;;;15.20;;
966;SDS011;56108;48.730;9.304;2022-09-12T00:10:54;14.45;;;12.95;;
966;SDS011;56108;48.730;9.304;2022-09-12T00:13:02;15.73;;;14.27;;
966;SDS011;56108;48.730;9.304;2022-09-12T00:15:10;16.52;;;14.77;;
966;SDS011;56108;48.730;9.304;2022-09-12T00:17:18;15.77;;;14.15;;
966;SDS011;56108;48.730;9.304;2022-09-12T00:19:27;17.27;;;15.70;;
966;SDS011;56108;48.730;9.304;2022-09-12T00:21:37;17.23;;;15.52;;
966;SDS011;56108;48.730;9.304;2022-09-12T00:23:50;15.13;;;13.73;;
966;SDS011;56108;48.730;9.304;2022-09-12T00:25:58;16.55;;;14.85;;
966;SDS011;56108;48.730;9.304;2022-09-12T00:28:08;16.65;;;14.93;;
966;SDS011;56108;48.730;9.304;2022-09-12T00:30:16;16.80;;;15.10;;
966;SDS011;56108;48.730;9.304;2022-09-12T00:32:24;17.15;;;15.45;;
966;SDS011;56108;48.730;9.304;2022-09-12T00:34:32;17.90;;;16.08;;
966;SDS011;56108;48.730;9.304;2022-09-12T00:36:42;16.60;;;14.85;;
966;SDS011;56108;48.730;9.304;2022-09-12T00:38:53;16.20;;;14.57;;
966;SDS011;56108;48.730;9.304;2022-09-12T00:41:01;17.10;;;15.40;;
966;SDS011;56108;48.730;9.304;2022-09-12T00:43:10;18.08;;;16.25;;
966;SDS011;56108;48.730;9.304;2022-09-12T00:45:22;18.73;;;16.00;;
966;SDS011;56108;48.730;9.304;2022-09-12T00:47:34;18.00;;;16.13;;
966;SDS011;56108;48.730;9.304;2022-09-12T00:49:51;16.67;;;14.98;;
966;SDS011;56108;48.730;9.304;2022-09-12T00:52:06;17.50;;;15.77;;
966;SDS011;56108;48.730;9.304;2022-09-12T00:54:20;17.70;;;15.85;;
966;SDS011;56108;48.730;9.304;2022-09-12T00:56:33;18.70;;;16.80;;
966;SDS011;56108;48.730;9.304;2022-09-12T00:58:43;18.48;;;15.35;;
966;SDS011;56108;48.730;9.304;2022-09-12T01:00:57;18.40;;;16.45;;
966;SDS011;56108;48.730;9.304;2022-09-12T01:03:06;17.58;;;15.85;;
966;SDS011;56108;48.730;9.304;2022-09-12T01:05:18;16.60;;;15.00;;
966;SDS011;56108;48.730;9.304;2022-09-12T01:07:26;17.95;;;15.52;;
966;SDS011;56108;48.730;9.304;2022-09-12T01:09:37;18.88;;;16.05;;
966;SDS011;56108;48.730;9.304;2022-09-12T01:11:47;17.25;;;15.48;;
966;SDS011;56108;48.730;9.304;2022-09-12T01:13:56;20.48;;;17.05;;
966;SDS011;56108;48.730;9.304;2022-09-12T01:16:05;18.88;;;15.68;;
966;SDS011;56108;48.730;9.304;2022-09-12T01:18:17;18.17;;;15.35;;
966;SDS011;56108;48.730;9.304;2022-09-12T01:23:10;16.63;;;14.82;;
966;SDS011;56108;48.730;9.304;2022-09-12T01:25:57;17.40;;;15.50;;
966;SDS011;56108;48.730;9.304;2022-09-12T01:28:23;16.55;;;14.85;;
966;SDS011;56108;48.730;9.304;2022-09-12T01:30:46;16.45;;;14.73;;
966;SDS011;56108;48.730;9.304;2022-09-12T01:33:00;16.60;;;14.90;;
966;SDS011;56108;48.730;9.304;2022-09-12T01:35:24;17.27;;;14.98;;
966;SDS011;56108;48.730;9.304;2022-09-12T01:37:40;16.35;;;14.85;;
966;SDS011;56108;48.730;9.304;2022-09-12T01:39:54;17.40;;;15.35;;
966;SDS011;56108;48.730;9.304;2022-09-12T01:42:10;18.45;;;16.55;;
966;SDS011;56108;48.730;9.304;2022-09-12T01:44:29;18.40;;;16.48;;
966;SDS011;56108;48.730;9.304;2022-09-12T01:46:46;17.10;;;15.40;;
966;SDS011;56108;48.730;9.304;2022-09-12T01:49:06;19.77;;;16.05;;
966;SDS011;56108;48.730;9.304;2022-09-12T01:51:20;16.60;;;14.82;;
966;SDS011;56108;48.730;9.304;2022-09-12T01:53:35;18.13;;;16.23;;
966;SDS011;56108;48.730;9.304;2022-09-12T01:55:49;19.65;;;17.30;;
966;SDS011;56108;48.730;9.304;2022-09-12T01:58:03;18.83;;;16.75;;
966;SDS011;56108;48.730;9.304;2022-09-12T02:00:14;18.73;;;16.73;;
966;SDS011;56108;48.730;9.304;2022-09-12T02:02:26;19.00;;;17.05;;
966;SDS011;56108;48.730;9.304;2022-09-12T02:04:40;19.85;;;17.75;;
966;SDS011;56108;48.730;9.304;2022-09-12T02:06:56;19.15;;;17.23;;
966;SDS011;56108;48.730;9.304;2022-09-12T02:09:10;20.00;;;16.92;;
966;SDS011;56108;48.730;9.304;2022-09-12T02:11:24;19.40;;;17.45;;
966;SDS011;56108;48.730;9.304;2022-09-12T02:13:33;19.42;;;17.35;;
966;SDS011;56108;48.730;9.304;2022-09-12T02:15:45;18.55;;;16.70;;
966;SDS011;56108;48.730;9.304;2022-09-12T02:17:59;20.15;;;17.52;;
966;SDS011;56108;48.730;9.304;2022-09-12T02:20:11;18.83;;;16.67;;
966;SDS011;56108;48.730;9.304;2022-09-12T02:22:44;17.63;;;15.73;;
966;SDS011;56108;48.730;9.304;2022-09-12T02:24:54;20.67;;;16.85;;
966;SDS011;56108;48.730;9.304;2022-09-12T02:27:07;19.25;;;17.23;;
966;SDS011;56108;48.730;9.304;2022-09-12T02:29:20;19.30;;;15.95;;
966;SDS011;56108;48.730;9.304;2022-09-12T02:31:29;19.90;;;17.80;;
966;SDS011;56108;48.730;9.304;2022-09-12T02:33:48;19.50;;;17.27;;
966;SDS011;56108;48.730;9.304;2022-09-12T02:36:03;18.48;;;16.55;;
966;SDS011;56108;48.730;9.304;2022-09-12T02:38:21;17.27;;;15.48;;
966;SDS011;56108;48.730;9.304;2022-09-12T02:40:34;19.30;;;16.35;;
966;SDS011;56108;48.730;9.304;2022-09-12T02:42:43;18.15;;;15.77;;
966;SDS011;56108;48.730;9.304;2022-09-12T02:44:51;19.13;;;17.13;;
966;SDS011;56108;48.730;9.304;2022-09-12T02:47:03;18.05;;;16.15;;
966;SDS011;56108;48.730;9.304;2022-09-12T02:49:17;19.05;;;17.10;;
966;SDS011;56108;48.730;9.304;2022-09-12T02:51:25;20.75;;;17.48;;
966;SDS011;56108;48.730;9.304;2022-09-12T02:53:34;21.67;;;18.15;;
966;SDS011;56108;48.730;9.304;2022-09-12T02:55:42;19.85;;;17.00;;
966;SDS011;56108;48.730;9.304;2022-09-12T02:57:50;21.92;;;17.98;;
966;SDS011;56108;48.730;9.304;2022-09-12T02:59:59;21.13;;;18.98;;
966;SDS011;56108;48.730;9.304;2022-09-12T03:02:14;20.95;;;17.92;;
966;SDS011;56108;48.730;9.304;2022-09-12T03:07:10;19.70;;;16.73;;
966;SDS011;56108;48.730;9.304;2022-09-12T03:09:24;21.73;;;19.38;;
966;SDS011;56108;48.730;9.304;2022-09-12T03:11:42;21.55;;;19.20;;
966;SDS011;56108;48.730;9.304;2022-09-12T03:14:06;20.88;;;18.58;;
966;SDS011;56108;48.730;9.304;2022-09-12T03:16:27;21.98;;;17.60;;
966;SDS011;56108;48.730;9.304;2022-09-12T03:18:47;20.52;;;18.25;;
966;SDS011;56108;48.730;9.304;2022-09-12T03:21:06;19.88;;;16.23;;
966;SDS011;56108;48.730;9.304;2022-09-12T03:23:23;20.33;;;18.08;;
966;SDS011;56108;48.730;9.304;2022-09-12T03:25:37;20.48;;;17.38;;
966;SDS011;56108;48.730;9.304;2022-09-12T03:27:52;19.45;;;16.52;;
966;SDS011;56108;48.730;9.304;2022-09-12T03:30:03;18.52;;;16.55;;
966;SDS011;56108;48.730;9.304;2022-09-12T03:32:14;21.30;;;17.60;;
966;SDS011;56108;48.730;9.304;2022-09-12T03:34:23;20.85;;;17.20;;
966;SDS011;56108;48.730;9.304;2022-09-12T03:36:35;22.35;;;17.85;;
966;SDS011;56108;48.730;9.304;2022-09-12T03:38:44;20.33;;;17.40;;
966;SDS011;56108;48.730;9.304;2022-09-12T03:40:52;18.45;;;15.82;;
966;SDS011;56108;48.730;9.304;2022-09-12T03:43:00;20.02;;;18.02;;
966;SDS011;56108;48.730;9.304;2022-09-12T03:45:08;19.60;;;16.95;;
966;SDS011;56108;48.730;9.304;2022-09-12T03:47:17;21.52;;;17.58;;
966;SDS011;56108;48.730;9.304;2022-09-12T03:49:25;22.85;;;18.90;;
966;SDS011;56108;48.730;9.304;2022-09-12T03:51:36;21.52;;;18.13;;
966;SDS011;56108;48.730;9.304;2022-09-12T03:53:44;21.75;;;18.45;;
966;SDS011;56108;48.730;9.304;2022-09-12T03:55:51;25.38;;;17.95;;
966;SDS011;56108;48.730;9.304;2022-09-12T03:57:59;19.15;;;16.75;;
966;SDS011;56108;48.730;9.304;2022-09-12T04:00:07;19.55;;;17.50;;
966;SDS011;56108;48.730;9.304;2022-09-12T04:02:22;20.13;;;17.70;;
966;SDS011;56108;48.730;9.304;2022-09-12T04:04:30;23.20;;;18.27;;
966;SDS011;56108;48.730;9.304;2022-09-12T04:06:42;20.23;;;17.50;;
966;SDS011;56108;48.730;9.304;2022-09-12T04:08:51;21.00;;;18.75;;
966;SDS011;56108;48.730;9.304;2022-09-12T04:11:03;22.27;;;19.00;;
966;SDS011;56108;48.730;9.304;2022-09-12T04:13:12;22.20;;;18.75;;
966;SDS011;56108;48.730;9.304;2022-09-12T04:15:20;20.00;;;17.85;;
966;SDS011;56108;48.730;9.304;2022-09-12T04:17:28;22.45;;;18.45;;
966;SDS011;56108;48.730;9.304;2022-09-12T04:19:35;21.33;;;18.10;;
966;SDS011;56108;48.730;9.304;2022-09-12T04:21:46;22.85;;;18.63;;
966;SDS011;56108;48.730;9.304;2022-09-12T04:23:54;24.08;;;18.92;;
966;SDS011;56108;48.730;9.304;2022-09-12T04:26:02;22.58;;;18.65;;
966;SDS011;56108;48.730;9.304;2022-09-12T04:28:11;24.10;;;20.45;;
966;SDS011;56108;48.730;9.304;2022-09-12T04:30:19;23.80;;;20.73;;
966;SDS011;56108;48.730;9.304;2022-09-12T04:32:28;23.73;;;19.60;;
966;SDS011;56108;48.730;9.304;2022-09-12T04:34:36;22.88;;;19.13;;
966;SDS011;56108;48.730;9.304;2022-09-12T04:36:47;25.00;;;19.65;;
966;SDS011;56108;48.730;9.304;2022-09-12T04:38:55;23.42;;;20.52;;
966;SDS011;56108;48.730;9.304;2022-09-12T04:41:09;22.67;;;18.83;;
966;SDS011;56108;48.730;9.304;2022-09-12T04:43:17;23.58;;;18.92;;
966;SDS011;56108;48.730;9.304;2022-09-12T04:45:25;24.67;;;19.70;;
966;SDS011;56108;48.730;9.304;2022-09-12T04:47:33;21.95;;;18.33;;
966;SDS011;56108;48.730;9.304;2022-09-12T04:49:41;22.63;;;18.85;;
966;SDS011;56108;48.730;9.304;2022-09-12T04:51:52;23.10;;;18.38;;
966;SDS011;56108;48.730;9.304;2022-09-12T04:54:01;20.48;;;18.27;;
966;SDS011;56108;48.730;9.304;2022-09-12T04:56:10;20.30;;;17.10;;
966;SDS011;56108;48.730;9.304;2022-09-12T04:58:19;21.33;;;18.33;;
966;SDS011;56108;48.730;9.304;2022-09-12T05:00:28;19.00;;;17.00;;
966;SDS011;56108;48.730;9.304;2022-09-12T05:02:36;20.95;;;17.30;;
966;SDS011;56108;48.730;9.304;2022-09-12T05:04:44;22.05;;;18.17;;
966;SDS011;56108;48.730;9.304;2022-09-12T05:06:55;22.20;;;17.48;;
966;SDS011;56108;48.730;9.304;2022-09-12T05:09:04;21.80;;;18.05;;
966;SDS011;56108;48.730;9.304;2022-09-12T05:11:15;24.73;;;18.33;;
966;SDS011;56108;48.730;9.304;2022-09-12T05:13:30;20.48;;;16.48;;
966;SDS011;56108;48.730;9.304;2022-09-12T05:15:40;21.33;;;16.20;;
966;SDS011;56108;48.730;9.304;2022-09-12T05:17:48;19.10;;;15.75;;
966;SDS011;56108;48.730;9.304;2022-09-12T05:19:56;16.17;;;14.32;;
966;SDS011;56108;48.730;9.304;2022-09-12T05:22:07;18.33;;;14.10;;
966;SDS011;56108;48.730;9.304;2022-09-12T05:24:15;15.43;;;13.85;;
966;SDS011;56108;48.730;9.304;2022-09-12T05:26:23;15.32;;;13.70;;
966;SDS011;56108;48.730;9.304;2022-09-12T05:28:32;15.40;;;13.80;;
966;SDS011;56108;48.730;9.304;2022-09-12T05:30:41;15.82;;;14.30;;
966;SDS011;56108;48.730;9.304;2022-09-12T05:32:49;14.25;;;12.75;;
966;SDS011;56108;48.730;9.304;2022-09-12T05:34:57;16.25;;;14.68;;
966;SDS011;56108;48.730;9.304;2022-09-12T05:37:08;17.65;;;14.57;;
966;SDS011;56108;48.730;9.304;2022-09-12T05:39:17;16.15;;;14.02;;
966;SDS011;56108;48.730;9.304;2022-09-12T05:41:27;14.65;;;13.05;;
966;SDS011;56108;48.730;9.304;2022-09-12T05:43:37;15.40;;;13.88;;
966;SDS011;56108;48.730;9.304;2022-09-12T05:45:46;14.32;;;12.90;;
966;SDS011;56108;48.730;9.304;2022-09-12T05:47:54;16.98;;;14.00;;
966;SDS011;56108;48.730;9.304;2022-09-12T05:50:02;15.88;;;14.18;;
966;SDS011;56108;48.730;9.304;2022-09-12T05:52:17;15.23;;;13.73;;
966;SDS011;56108;48.730;9.304;2022-09-12T05:54:25;15.73;;;14.13;;
966;SDS011;56108;48.730;9.304;2022-09-12T05:56:36;16.30;;;13.85;;
966;SDS011;56108;48.730;9.304;2022-09-12T05:58:47;15.65;;;14.05;;
966;SDS011;56108;48.730;9.304;2022-09-12T06:01:06;16.15;;;14.45;;
966;SDS011;56108;48.730;9.304;2022-09-12T06:03:16;16.33;;;14.65;;
966;SDS011;56108;48.730;9.304;2022-09-12T06:05:23;14.32;;;12.77;;
966;SDS011;56108;48.730;9.304;2022-09-12T06:07:34;17.40;;;14.10;;
966;SDS011;56108;48.730;9.304;2022-09-12T06:09:42;14.65;;;12.77;;
966;SDS011;56108;48.730;9.304;2022-09-12T06:11:50;14.27;;;12.80;;
966;SDS011;56108;48.730;9.304;2022-09-12T06:13:59;14.30;;;12.90;;
966;SDS011;56108;48.730;9.304;2022-09-12T06:16:08;14.35;;;12.85;;
966;SDS011;56108;48.730;9.304;2022-09-12T06:18:19;14.45;;;13.15;;
966;SDS011;56108;48.730;9.304;2022-09-12T06:20:27;11.50;;;10.50;;
966;SDS011;56108;48.730;9.304;2022-09-12T06:22:41;10.35;;;9.55;;
966;SDS011;56108;48.730;9.304;2022-09-12T06:24:49;9.02;;;8.25;;
966;SDS011;56108;48.730;9.304;2022-09-12T06:27:01;8.35;;;7.75;;
966;SDS011;56108;48.730;9.304;2022-09-12T06:29:09;7.93;;;7.13;;
966;SDS011;56108;48.730;9.304;2022-09-12T06:31:18;8.00;;;7.40;;
966;SDS011;56108;48.730;9.304;2022-09-12T06:33:28;8.20;;;7.60;;
966;SDS011;56108;48.730;9.304;2022-09-12T06:35:37;8.30;;;7.60;;
966;SDS011;56108;48.730;9.304;2022-09-12T06:37:48;7.85;;;7.18;;
966;SDS011;56108;48.730;9.304;2022-09-12T06:39:56;8.67;;;7.87;;
966;SDS011;56108;48.730;9.304;2022-09-12T06:42:05;7.80;;;7.20;;
966;SDS011;56108;48.730;9.304;2022-09-12T06:44:15;7.37;;;6.87;;
966;SDS011;56108;48.730;9.304;2022-09-12T06:46:24;6.80;;;6.30;;
966;SDS011;56108;48.730;9.304;2022-09-12T06:48:34;7.67;;;7.17;;
966;SDS011;56108;48.730;9.304;2022-09-12T06:50:53;7.93;;;7.17;;
966;SDS011;56108;48.730;9.304;2022-09-12T06:53:04;6.97;;;6.47;;
966;SDS011;56108;48.730;9.304;2022-09-12T06:55:13;6.87;;;6.37;;
966;SDS011;56108;48.730;9.304;2022-09-12T06:57:25;6.50;;;5.97;;
966;SDS011;56108;48.730;9.304;2022-09-12T06:59:35;7.00;;;6.50;;
966;SDS011;56108;48.730;9.304;2022-09-12T07:01:43;6.77;;;6.37;;
966;SDS011;56108;48.730;9.304;2022-09-12T07:03:51;7.47;;;6.97;;
966;SDS011;56108;48.730;9.304;2022-09-12T07:06:03;8.27;;;7.70;;
966;SDS011;56108;48.730;9.304;2022-09-12T07:08:15;8.07;;;7.57;;
966;SDS011;56108;48.730;9.304;2022-09-12T07:10:26;8.30;;;7.70;;
966;SDS011;56108;48.730;9.304;2022-09-12T07:12:34;7.73;;;7.23;;
966;SDS011;56108;48.730;9.304;2022-09-12T07:14:42;8.17;;;7.67;;
966;SDS011;56108;48.730;9.304;2022-09-12T07:16:50;7.30;;;6.83;;
966;SDS011;56108;48.730;9.304;2022-09-12T07:18:59;7.63;;;7.03;;
966;SDS011;56108;48.730;9.304;2022-09-12T07:21:09;6.87;;;6.47;;
966;SDS011;56108;48.730;9.304;2022-09-12T07:23:22;7.67;;;6.97;;
966;SDS011;56108;48.730;9.304;2022-09-12T07:25:29;7.63;;;7.13;;
966;SDS011;56108;48.730;9.304;2022-09-12T07:27:37;8.43;;;7.83;;
966;SDS011;56108;48.730;9.304;2022-09-12T07:29:50;7.70;;;7.20;;
966;SDS011;56108;48.730;9.304;2022-09-12T07:31:58;8.37;;;7.77;;
966;SDS011;56108;48.730;9.304;2022-09-12T07:34:06;8.60;;;7.90;;
966;SDS011;56108;48.730;9.304;2022-09-12T07:36:14;8.03;;;7.53;;
966;SDS011;56108;48.730;9.304;2022-09-12T07:38:26;7.00;;;6.50;;
966;SDS011;56108;48.730;9.304;2022-09-12T07:40:35;7.80;;;7.10;;
966;SDS011;56108;48.730;9.304;2022-09-12T07:42:44;6.50;;;6.00;;
966;SDS011;56108;48.730;9.304;2022-09-12T07:44:52;7.85;;;7.25;;
966;SDS011;56108;48.730;9.304;2022-09-12T07:46:59;8.57;;;7.93;;
966;SDS011;56108;48.730;9.304;2022-09-12T07:49:10;8.70;;;8.00;;
966;SDS011;56108;48.730;9.304;2022-09-12T07:51:18;9.25;;;8.55;;
966;SDS011;56108;48.730;9.304;2022-09-12T07:53:33;8.60;;;7.90;;
966;SDS011;56108;48.730;9.304;2022-09-12T07:55:42;10.52;;;9.68;;
966;SDS011;56108;48.730;9.304;2022-09-12T07:57:50;10.05;;;9.15;;
966;SDS011;56108;48.730;9.304;2022-09-12T07:59:59;10.63;;;9.73;;
966;SDS011;56108;48.730;9.304;2022-09-12T08:02:15;9.73;;;8.82;;
966;SDS011;56108;48.730;9.304;2022-09-12T08:04:23;11.30;;;10.20;;
966;SDS011;56108;48.730;9.304;2022-09-12T08:06:31;9.63;;;8.82;;
966;SDS011;56108;48.730;9.304;2022-09-12T08:08:43;10.10;;;9.13;;
966;SDS011;56108;48.730;9.304;2022-09-12T08:10:55;10.40;;;9.30;;
966;SDS011;56108;48.730;9.304;2022-09-12T08:13:03;9.93;;;9.13;;
966;SDS011;56108;48.730;9.304;2022-09-12T08:15:14;10.40;;;9.40;;
966;SDS011;56108;48.730;9.304;2022-09-12T08:17:23;11.18;;;10.15;;
966;SDS011;56108;48.730;9.304;2022-09-12T08:19:32;11.48;;;10.23;;
966;SDS011;56108;48.730;9.304;2022-09-12T08:21:40;10.52;;;9.63;;
966;SDS011;56108;48.730;9.304;2022-09-12T08:23:53;10.77;;;9.77;;
966;SDS011;56108;48.730;9.304;2022-09-12T08:26:02;10.48;;;9.57;;
966;SDS011;56108;48.730;9.304;2022-09-12T08:28:12;10.80;;;9.80;;
966;SDS011;56108;48.730;9.304;2022-09-12T08:30:22;10.75;;;9.85;;
966;SDS011;56108;48.730;9.304;2022-09-12T08:32:30;10.85;;;9.95;;
966;SDS011;56108;48.730;9.304;2022-09-12T08:34:38;10.43;;;9.52;;
966;SDS011;56108;48.730;9.304;2022-09-12T08:36:48;10.70;;;9.80;;
966;SDS011;56108;48.730;9.304;2022-09-12T08:39:01;9.63;;;8.73;;
966;SDS011;56108;48.730;9.304;2022-09-12T08:41:11;11.77;;;8.88;;
966;SDS011;56108;48.730;9.304;2022-09-12T08:43:31;9.93;;;9.18;;
966;SDS011;56108;48.730;9.304;2022-09-12T08:45:58;9.73;;;8.93;;
966;SDS011;56108;48.730;9.304;2022-09-12T08:48:13;9.07;;;8.38;;
966;SDS011;56108;48.730;9.304;2022-09-12T08:50:22;9.45;;;8.65;;
966;SDS011;56108;48.730;9.304;2022-09-12T08:52:32;9.60;;;8.68;;
966;SDS011;56108;48.730;9.304;2022-09-12T08:54:49;7.82;;;7.13;;
966;SDS011;56108;48.730;9.304;2022-09-12T08:57:00;8.30;;;7.60;;
966;SDS011;56108;48.730;9.304;2022-09-12T08:59:10;9.15;;;8.35;;
966;SDS011;56108;48.730;9.304;2022-09-12T09:01:21;7.40;;;6.80;;
966;SDS011;56108;48.730;9.304;2022-09-12T09:03:41;8.50;;;7.80;;
966;SDS011;56108;48.730;9.304;2022-09-12T09:05:56;7.60;;;6.88;;
966;SDS011;56108;48.730;9.304;2022-09-12T09:08:16;7.60;;;7.00;;
966;SDS011;56108;48.730;9.304;2022-09-12T09:10:41;7.35;;;6.85;;
966;SDS011;56108;48.730;9.304;2022-09-12T09:12:57;6.95;;;6.35;;
966;SDS011;56108;48.730;9.304;2022-09-12T09:15:16;7.28;;;6.68;;
966;SDS011;56108;48.730;9.304;2022-09-12T09:17:37;6.30;;;5.80;;
966;SDS011;56108;48.730;9.304;2022-09-12T09:19:49;6.50;;;5.78;;
966;SDS011;56108;48.730;9.304;2022-09-12T09:22:01;6.13;;;5.65;;
966;SDS011;56108;48.730;9.304;2022-09-12T09:24:14;5.70;;;5.30;;
966;SDS011;56108;48.730;9.304;2022-09-12T09:26:29;5.38;;;4.97;;
966;SDS011;56108;48.730;9.304;2022-09-12T09:28:48;5.13;;;4.82;;
966;SDS011;56108;48.730;9.304;2022-09-12T09:30:57;5.18;;;4.78;;
966;SDS011;56108;48.730;9.304;2022-09-12T09:33:09;5.13;;;4.73;;
966;SDS011;56108;48.730;9.304;2022-09-12T09:35:26;5.17;;;4.77;;
966;SDS011;56108;48.730;9.304;2022-09-12T09:37:51;5.50;;;5.10;;
966;SDS011;56108;48.730;9.304;2022-09-12T09:40:07;4.20;;;4.00;;
966;SDS011;56108;48.730;9.304;2022-09-12T09:42:33;4.20;;;4.00;;
966;SDS011;56108;48.730;9.304;2022-09-12T09:44:51;4.47;;;4.20;;
966;SDS011;56108;48.730;9.304;2022-09-12T09:47:01;4.23;;;3.93;;
966;SDS011;56108;48.730;9.304;2022-09-12T09:49:10;4.40;;;4.20;;
966;SDS011;56108;48.730;9.304;2022-09-12T09:51:22;3.73;;;3.53;;
966;SDS011;56108;48.730;9.304;2022-09-12T09:53:38;3.80;;;3.60;;
966;SDS011;56108;48.730;9.304;2022-09-12T09:55:52;3.70;;;3.50;;
966;SDS011;56108;48.730;9.304;2022-09-12T09:58:02;4.27;;;3.90;;
966;SDS011;56108;48.730;9.304;2022-09-12T10:00:20;3.20;;;3.10;;
966;SDS011;56108;48.730;9.304;2022-09-12T10:02:31;3.77;;;3.47;;
966;SDS011;56108;48.730;9.304;2022-09-12T10:04:52;4.17;;;3.90;;
966;SDS011;56108;48.730;9.304;2022-09-12T10:07:04;3.50;;;3.30;;
966;SDS011;56108;48.730;9.304;2022-09-12T10:09:22;3.77;;;3.57;;
966;SDS011;56108;48.730;9.304;2022-09-12T10:11:32;3.70;;;3.50;;
966;SDS011;56108;48.730;9.304;2022-09-12T10:13:50;3.67;;;3.47;;
966;SDS011;56108;48.730;9.304;2022-09-12T10:16:04;3.50;;;3.33;;
966;SDS011;56108;48.730;9.304;2022-09-12T10:18:31;3.80;;;3.60;;
966;SDS011;56108;48.730;9.304;2022-09-12T10:20:44;3.60;;;3.40;;
966;SDS011;56108;48.730;9.304;2022-09-12T10:22:54;3.70;;;3.50;;
966;SDS011;56108;48.730;9.304;2022-09-12T10:25:03;3.93;;;3.63;;
966;SDS011;56108;48.730;9.304;2022-09-12T10:27:19;3.73;;;3.53;;
966;SDS011;56108;48.730;9.304;2022-09-12T10:29:34;3.30;;;3.10;;
966;SDS011;56108;48.730;9.304;2022-09-12T10:31:51;3.83;;;3.63;;
966;SDS011;56108;48.730;9.304;2022-09-12T10:34:01;3.33;;;3.13;;
966;SDS011;56108;48.730;9.304;2022-09-12T10:36:09;3.90;;;3.60;;
966;SDS011;56108;48.730;9.304;2022-09-12T10:38:20;3.43;;;3.23;;
966;SDS011;56108;48.730;9.304;2022-09-12T10:40:37;3.53;;;3.33;;
966;SDS011;56108;48.730;9.304;2022-09-12T10:42:49;3.33;;;3.13;;
966;SDS011;56108;48.730;9.304;2022-09-12T10:45:01;3.80;;;3.60;;
966;SDS011;56108;48.730;9.304;2022-09-12T10:47:20;3.70;;;3.40;;
966;SDS011;56108;48.730;9.304;2022-09-12T10:49:30;3.50;;;3.30;;
966;SDS011;56108;48.730;9.304;2022-09-12T10:51:41;3.47;;;3.27;;
966;SDS011;56108;48.730;9.304;2022-09-12T10:53:49;4.03;;;3.73;;
966;SDS011;56108;48.730;9.304;2022-09-12T10:56:00;3.50;;;3.30;;
966;SDS011;56108;48.730;9.304;2022-09-12T10:58:16;4.20;;;3.90;;
966;SDS011;56108;48.730;9.304;2022-09-12T11:00:44;4.47;;;4.27;;
966;SDS011;56108;48.730;9.304;2022-09-12T11:03:02;3.80;;;3.60;;
966;SDS011;56108;48.730;9.304;2022-09-12T11:05:19;4.00;;;3.80;;
966;SDS011;56108;48.730;9.304;2022-09-12T11:07:41;4.10;;;3.80;;
966;SDS011;56108;48.730;9.304;2022-09-12T11:09:53;3.90;;;3.60;;
966;SDS011;56108;48.730;9.304;2022-09-12T11:12:11;3.43;;;3.23;;
966;SDS011;56108;48.730;9.304;2022-09-12T11:14:32;4.10;;;3.90;;
966;SDS011;56108;48.730;9.304;2022-09-12T11:16:52;3.40;;;3.20;;
966;SDS011;56108;48.730;9.304;2022-09-12T11:19:30;4.40;;;3.43;;
966;SDS011;56108;48.730;9.304;2022-09-12T11:22:00;3.50;;;3.30;;
966;SDS011;56108;48.730;9.304;2022-09-12T11:24:29;2.93;;;2.83;;
966;SDS011;56108;48.730;9.304;2022-09-12T11:26:58;3.70;;;3.50;;
966;SDS011;56108;48.730;9.304;2022-09-12T11:29:12;3.50;;;3.30;;
966;SDS011;56108;48.730;9.304;2022-09-12T11:31:40;4.17;;;3.87;;
966;SDS011;56108;48.730;9.304;2022-09-12T11:34:00;4.00;;;3.80;;
966;SDS011;56108;48.730;9.304;2022-09-12T11:36:18;8.40;;;4.10;;
966;SDS011;56108;48.730;9.304;2022-09-12T11:38:37;3.87;;;3.67;;
966;SDS011;56108;48.730;9.304;2022-09-12T11:41:02;3.93;;;3.73;;
966;SDS011;56108;48.730;9.304;2022-09-12T11:43:18;3.90;;;3.70;;
966;SDS011;56108;48.730;9.304;2022-09-12T11:45:34;4.13;;;3.93;;
966;SDS011;56108;48.730;9.304;2022-09-12T11:47:47;3.70;;;3.50;;
966;SDS011;56108;48.730;9.304;2022-09-12T11:50:02;2.70;;;2.60;;
966;SDS011;56108;48.730;9.304;2022-09-12T11:52:22;3.07;;;2.80;;
966;SDS011;56108;48.730;9.304;2022-09-12T11:54:31;2.63;;;2.53;;
966;SDS011;56108;48.730;9.304;2022-09-12T11:56:46;2.20;;;2.10;;
966;SDS011;56108;48.730;9.304;2022-09-12T11:59:00;3.00;;;2.77;;
966;SDS011;56108;48.730;9.304;2022-09-12T12:01:16;2.10;;;2.00;;
966;SDS011;56108;48.730;9.304;2022-09-12T12:03:30;1.60;;;1.50;;
966;SDS011;56108;48.730;9.304;2022-09-12T12:05:47;2.33;;;2.23;;
966;SDS011;56108;48.730;9.304;2022-09-12T12:08:00;2.20;;;2.10;;
966;SDS011;56108;48.730;9.304;2022-09-12T12:10:21;2.50;;;2.40;;
966;SDS011;56108;48.730;9.304;2022-09-12T12:12:31;2.70;;;2.60;;
966;SDS011;56108;48.730;9.304;2022-09-12T12:14:40;2.30;;;2.20;;
966;SDS011;56108;48.730;9.304;2022-09-12T12:16:50;2.30;;;2.20;;
966;SDS011;56108;48.730;9.304;2022-09-12T12:18:59;2.50;;;2.40;;
966;SDS011;56108;48.730;9.304;2022-09-12T12:21:25;1.97;;;1.90;;
966;SDS011;56108;48.730;9.304;2022-09-12T12:24:01;2.00;;;1.90;;
966;SDS011;56108;48.730;9.304;2022-09-12T12:28:58;1.47;;;1.40;;
966;SDS011;56108;48.730;9.304;2022-09-12T12:31:07;1.80;;;1.70;;
966;SDS011;56108;48.730;9.304;2022-09-12T12:36:01;2.53;;;2.23;;
966;SDS011;56108;48.730;9.304;2022-09-12T12:38:28;1.80;;;1.77;;
966;SDS011;56108;48.730;9.304;2022-09-12T12:40:37;1.90;;;1.80;;
966;SDS011;56108;48.730;9.304;2022-09-12T12:47:47;2.40;;;2.30;;
966;SDS011;56108;48.730;9.304;2022-09-12T12:50:00;2.07;;;1.97;;
966;SDS011;56108;48.730;9.304;2022-09-12T12:52:14;1.90;;;1.80;;
966;SDS011;56108;48.730;9.304;2022-09-12T12:57:01;2.30;;;2.20;;
966;SDS011;56108;48.730;9.304;2022-09-12T12:59:12;2.20;;;2.10;;
966;SDS011;56108;48.730;9.304;2022-09-12T13:01:24;2.23;;;2.10;;
966;SDS011;56108;48.730;9.304;2022-09-12T13:03:32;2.00;;;1.90;;
966;SDS011;56108;48.730;9.304;2022-09-12T13:05:43;1.80;;;1.70;;
966;SDS011;56108;48.730;9.304;2022-09-12T13:07:53;1.80;;;1.80;;
966;SDS011;56108;48.730;9.304;2022-09-12T13:10:07;3.40;;;2.20;;
966;SDS011;56108;48.730;9.304;2022-09-12T13:12:28;2.27;;;2.17;;
966;SDS011;56108;48.730;9.304;2022-09-12T13:14:48;2.33;;;2.20;;
966;SDS011;56108;48.730;9.304;2022-09-12T13:16:59;1.80;;;1.70;;
966;SDS011;56108;48.730;9.304;2022-09-12T13:19:12;2.00;;;1.90;;
966;SDS011;56108;48.730;9.304;2022-09-12T13:21:22;2.03;;;1.93;;
966;SDS011;56108;48.730;9.304;2022-09-12T13:23:31;2.20;;;2.10;;
966;SDS011;56108;48.730;9.304;2022-09-12T13:25:41;1.90;;;1.80;;
966;SDS011;56108;48.730;9.304;2022-09-12T13:28:00;1.93;;;1.83;;
966;SDS011;56108;48.730;9.304;2022-09-12T13:30:10;2.00;;;1.90;;
966;SDS011;56108;48.730;9.304;2022-09-12T13:32:22;2.00;;;1.90;;
966;SDS011;56108;48.730;9.304;2022-09-12T13:34:32;2.37;;;2.27;;
966;SDS011;56108;48.730;9.304;2022-09-12T13:39:25;2.10;;;2.00;;
966;SDS011;56108;48.730;9.304;2022-09-12T13:41:48;2.20;;;2.00;;
966;SDS011;56108;48.730;9.304;2022-09-12T13:44:09;2.00;;;1.90;;
966;SDS011;56108;48.730;9.304;2022-09-12T13:46:26;2.10;;;2.00;;
966;SDS011;56108;48.730;9.304;2022-09-12T13:48:39;2.50;;;2.40;;
966;SDS011;56108;48.730;9.304;2022-09-12T13:50:48;1.90;;;1.80;;